メインページ
METAR-TAF:

METAR-TAF

空港 :

ムルマンスク, ロシア

緯度: 68-58N, 経度: 033-03E, 海抜: 51m

現時点の気象観測

当レポートは36分前の23:00(UTC)に作成
無風
気温 -9°C
湿度 85%
気圧 1008 hPa
視程10km以上
1,500メートル以下は雲なし、積乱雲なし

METAR: ULMM 232300Z 00000MPS CAVOK M09/M11 Q1008 R31/090070 NOSIG RMK QFE749

時間: 02:36 (23:36 UTC)

予報

当レポートは3時間46分前の19:50(UTC)に作成
予報は23日の 21時(UTC)から 24日の 21時(UTC)まで有効
南東の風 6kt
視程10km以上
高度2000ftの雲は散在している
23日の 21時(UTC)から 24日の 06時(UTC)まで一時的に
変向風 2kt
視程: 1500m
高度500ftの千切れ雲あり
高度2000ftの雲は散在している
24日の 06時(UTC)から 24日の 21時(UTC)まで一時的に
の風 8kt
高度2000ftの千切れ雲あり, 積乱雲.
弱いにわか雪

TAF: ULMM 231950Z 2321/2421 13003MPS 9999 SCT020 TEMPO 2321/2406 VRB01MPS 1500 BR BKN005 SCT020 TEMPO 2406/2421 18004MPS -SHSN BKN020CB

4,000以上の空港の気象観測と天気予報(METAR報とTAF報)

利用可能な観測所は地図上に黄色い丸と赤い丸で示す。

丸の上にカーソルを重ねると観測所名を参照できる。

次にクリックすると気象観測と天気予報を参照できる。

マップの切り替え:黒色「×」印の緑ボタンをクリックして拡大、「-」印の緑ボタンをクリックして縮小、緑色の三角印をクリックして隣りの地図に切り替え


METAR-TAF: